Time;durP1;ratioP1;P1;durP2;ratioP2;P2;SDS_P1;SDS_P2;PMS_P1;PMS_P2;Temp;Humidity;BMP_temperature;BMP_pressure;BME280_temperature;BME280_humidity;BME280_pressure;Samples;Min_cycle;Max_cycle;Signal;HPM_P1;HPM_P2
2021/11/20 00:03:07;;;;;;;23.77;12.13;;;;;;;9.65;78.68;101669.00;8341224;33;21172;-75
2021/11/20 00:08:11;;;;;;;24.10;12.07;;;;;;;9.61;78.57;101657.59;8336873;33;20187;-76
2021/11/20 00:13:15;;;;;;;23.52;12.80;;;;;;;9.52;78.49;101658.13;8359251;33;20162;-76
2021/11/20 00:18:22;;;;;;;25.73;12.55;;;;;;;9.65;78.49;101655.59;8338225;33;20461;-75
2021/11/20 00:23:30;;;;;;;25.23;13.80;;;;;;;9.60;78.29;101653.19;8324464;33;20318;-76
2021/11/20 00:28:41;;;;;;;25.05;12.52;;;;;;;9.51;78.74;101653.69;8346900;33;20187;-75
2021/11/20 00:33:46;;;;;;;21.85;11.75;;;;;;;9.34;78.83;101648.44;8334397;33;20452;-76
2021/11/20 00:38:50;;;;;;;25.20;12.70;;;;;;;9.32;79.17;101635.09;8342407;33;20183;-76
2021/11/20 00:43:55;;;;;;;20.65;11.30;;;;;;;9.51;78.56;101633.09;8340280;33;21085;-76
2021/11/20 00:49:00;;;;;;;25.17;12.48;;;;;;;9.19;79.22;101639.44;8341700;33;20244;-75
2021/11/20 00:54:05;;;;;;;22.00;11.68;;;;;;;9.55;78.21;101627.59;8341805;33;20517;-75
2021/11/20 00:59:10;;;;;;;27.33;12.48;;;;;;;9.55;78.41;101627.59;8321559;33;20214;-76
2021/11/20 01:04:15;;;;;;;24.17;11.70;;;;;;;9.25;79.25;101631.03;8336883;33;20517;-76
2021/11/20 01:09:23;;;;;;;24.00;12.00;;;;;;;9.68;78.04;101639.31;8341932;33;21755;-75
2021/11/20 01:14:29;;;;;;;23.30;12.50;;;;;;;9.54;78.18;101628.53;8337972;33;20613;-76
2021/11/20 01:19:35;;;;;;;25.05;12.48;;;;;;;9.57;78.48;101633.69;8349379;33;21165;-75
2021/11/20 01:24:41;;;;;;;21.10;11.75;;;;;;;9.52;78.61;101623.25;8325252;33;20415;-75
2021/11/20 01:29:51;;;;;;;26.88;13.73;;;;;;;9.16;79.78;101619.00;8322507;33;20132;-75
2021/11/20 01:34:56;;;;;;;29.05;13.00;;;;;;;9.49;78.71;101618.94;8344155;33;20261;-75
2021/11/20 01:39:59;;;;;;;27.27;14.57;;;;;;;9.51;79.03;101622.38;8345130;33;20601;-75
2021/11/20 01:45:14;;;;;;;23.60;12.73;;;;;;;9.55;78.87;101612.34;8321443;33;20530;-76
2021/11/20 01:50:28;;;;;;;22.77;12.70;;;;;;;9.45;78.82;101603.09;8321307;33;20569;-76
2021/11/20 01:55:39;;;;;;;25.80;13.38;;;;;;;9.41;79.47;101604.22;8341919;33;20787;-75
2021/11/20 02:00:55;;;;;;;26.40;12.80;;;;;;;9.58;78.75;101603.25;8344086;33;20803;-76
2021/11/20 02:06:09;;;;;;;27.13;13.18;;;;;;;9.54;78.78;101604.38;8322450;33;20478;-76
2021/11/20 02:11:40;;;;;;;29.33;13.63;;;;;;;9.36;80.27;101593.75;8343545;33;20924;-76
2021/11/20 02:16:50;;;;;;;26.08;14.52;;;;;;;9.13;80.98;101587.00;8322553;33;20469;-75
2021/11/20 02:22:02;;;;;;;29.48;14.32;;;;;;;9.33;80.51;101587.72;8319861;33;20955;-76
2021/11/20 02:27:11;;;;;;;31.85;15.82;;;;;;;9.30;80.71;101578.03;8311187;33;20580;-76
2021/11/20 02:32:22;;;;;;;30.45;16.10;;;;;;;9.21;81.52;101570.47;8313234;33;20834;-76
2021/11/20 02:37:31;;;;;;;34.28;17.38;;;;;;;8.94;82.37;101581.81;8335808;33;20924;-75
2021/11/20 02:42:34;;;;;;;37.70;19.30;;;;;;;9.15;82.38;101560.09;8319353;33;20551;-75
2021/11/20 02:48:04;;;;;;;33.92;16.45;;;;;;;9.08;82.57;101553.34;8319509;33;21011;-76
2021/11/20 02:53:20;;;;;;;37.42;19.35;;;;;;;8.91;83.61;101549.78;8336656;33;22319;-76
2021/11/20 02:58:26;;;;;;;43.28;18.95;;;;;;;9.24;82.30;101536.34;8313319;33;20572;-76
2021/11/20 03:03:31;;;;;;;35.35;17.67;;;;;;;9.06;82.97;101543.59;8314711;33;20187;-75
2021/11/20 03:08:34;;;;;;;35.75;17.65;;;;;;;9.19;82.62;101537.56;8348370;33;20154;-75
2021/11/20 03:13:48;;;;;;;34.20;17.77;;;;;;;9.32;82.11;101537.69;8341719;33;20190;-77
2021/11/20 03:19:08;;;;;;;32.92;18.30;;;;;;;9.12;82.61;101526.28;8359548;33;20609;-75
2021/11/20 03:24:14;;;;;;;36.53;20.67;;;;;;;9.08;82.94;101523.88;8336553;33;21562;-76
2021/11/20 03:29:18;;;;;;;30.75;16.95;;;;;;;8.79;83.95;101523.69;8360037;33;20639;-75
2021/11/20 03:34:25;;;;;;;38.28;19.65;;;;;;;9.20;82.45;101520.50;8362662;33;22417;-76
2021/11/20 03:39:28;;;;;;;35.88;18.92;;;;;;;9.29;81.77;101514.59;8340048;33;21124;-76
2021/11/20 03:44:33;;;;;;;40.45;19.95;;;;;;;9.08;83.15;101519.41;8338211;33;20454;-74
2021/11/20 03:49:40;;;;;;;35.40;17.88;;;;;;;9.09;82.97;101523.78;8323440;33;20407;-75
2021/11/20 03:54:45;;;;;;;36.88;18.70;;;;;;;9.05;83.04;101508.81;8327802;33;20428;-75
2021/11/20 03:59:51;;;;;;;37.22;20.50;;;;;;;9.11;82.88;101518.34;8347556;33;20509;-74
2021/11/20 04:04:56;;;;;;;36.50;17.48;;;;;;;9.05;83.24;101515.06;8342652;33;20186;-74
2021/11/20 04:09:59;;;;;;;40.47;20.40;;;;;;;9.14;82.84;101521.72;8345394;33;20929;-75
2021/11/20 04:15:04;;;;;;;40.60;18.42;;;;;;;8.99;83.37;101518.06;8321333;33;20479;-75
2021/11/20 04:20:13;;;;;;;40.25;20.55;;;;;;;9.26;82.38;101517.47;8342740;33;20151;-75
2021/11/20 04:25:20;;;;;;;37.13;20.00;;;;;;;9.10;82.65;101524.66;8342675;33;20132;-75
2021/11/20 04:30:31;;;;;;;36.88;19.10;;;;;;;9.15;82.29;101515.41;8321618;33;21636;-74
2021/11/20 04:35:37;;;;;;;33.33;16.58;;;;;;;9.05;82.55;101506.13;8341413;33;20422;-75
2021/11/20 04:40:42;;;;;;;38.08;18.65;;;;;;;8.87;82.70;101507.19;8340472;33;22168;-75
2021/11/20 04:45:47;;;;;;;32.33;17.98;;;;;;;9.18;81.90;101509.00;8341591;33;20147;-73
2021/11/20 04:50:55;;;;;;;34.03;18.20;;;;;;;9.11;82.00;101507.63;8320516;33;20431;-75
2021/11/20 04:55:58;;;;;;;32.70;18.23;;;;;;;9.03;82.14;101498.19;8318050;33;20554;-74
2021/11/20 05:01:06;;;;;;;34.38;16.35;;;;;;;8.90;82.60;101505.19;8318630;33;20198;-74
2021/11/20 05:06:18;;;;;;;33.35;17.73;;;;;;;9.04;81.95;101505.28;8320901;33;20496;-75
2021/11/20 05:11:21;;;;;;;33.45;17.88;;;;;;;9.00;81.88;101498.38;8321049;33;20472;-74
2021/11/20 05:16:29;;;;;;;28.25;15.70;;;;;;;8.87;82.13;101501.84;8340893;33;21030;-74
2021/11/20 05:21:35;;;;;;;31.15;16.02;;;;;;;8.87;82.41;101499.16;8339791;33;20622;-74
2021/11/20 05:26:39;;;;;;;27.88;15.40;;;;;;;8.82;82.29;101497.59;8321393;33;20183;-74
2021/11/20 05:31:42;;;;;;;32.08;17.75;;;;;;;9.00;81.84;101494.84;8319210;33;20625;-74
2021/11/20 05:36:46;;;;;;;28.55;15.32;;;;;;;8.86;82.09;101489.38;8315430;33;20187;-74
2021/11/20 05:41:53;;;;;;;31.52;16.25;;;;;;;8.93;81.88;101485.41;8340609;33;20226;-74
2021/11/20 05:47:01;;;;;;;31.83;16.80;;;;;;;8.96;81.89;101479.88;8339703;33;20629;-75
2021/11/20 05:52:13;;;;;;;32.75;16.52;;;;;;;8.76;82.45;101476.50;8339987;33;20154;-75
2021/11/20 05:57:19;;;;;;;28.67;15.00;;;;;;;8.59;82.99;101469.41;8342988;33;20177;-74
2021/11/20 06:02:26;;;;;;;27.73;15.02;;;;;;;9.01;81.41;101461.72;8321094;33;21255;-75
2021/11/20 06:07:33;;;;;;;31.85;16.05;;;;;;;8.92;81.55;101462.25;8344856;33;20333;-75
2021/11/20 06:12:36;;;;;;;29.92;15.80;;;;;;;9.02;81.36;101472.38;8337842;33;20972;-76
2021/11/20 06:17:40;;;;;;;27.25;13.55;;;;;;;8.68;82.40;101469.84;8337222;33;20929;-74
2021/11/20 06:22:46;;;;;;;33.15;18.58;;;;;;;8.81;82.09;101453.00;8332842;33;20222;-74
2021/11/20 06:27:51;;;;;;;31.40;16.60;;;;;;;8.86;81.84;101462.56;8346376;33;20530;-75
2021/11/20 06:32:54;;;;;;;39.70;17.73;;;;;;;8.83;81.77;101453.78;8343736;33;20183;-75
2021/11/20 06:38:30;;;;;;;30.80;17.25;;;;;;;9.00;80.90;101465.34;8321000;33;20463;-75
2021/11/20 06:43:34;;;;;;;31.77;17.13;;;;;;;8.80;81.61;101459.31;8342442;33;20504;-75
2021/11/20 06:48:41;;;;;;;29.52;16.65;;;;;;;8.90;80.57;101467.69;8340438;33;20571;-74
2021/11/20 06:54:14;;;;;;;31.55;16.67;;;;;;;8.65;82.15;101462.00;8321836;33;20199;-75
2021/11/20 07:05:46;;;;;;;31.67;17.38;;;;;;;8.81;80.77;101477.13;8303578;33;20143;-75
2021/11/20 07:10:52;;;;;;;29.38;14.52;;;;;;;8.67;80.98;101474.34;8322642;33;20175;-75
2021/11/20 07:15:57;;;;;;;33.25;16.98;;;;;;;8.72;80.75;101474.97;8323397;33;20132;-76
2021/11/20 07:21:02;;;;;;;32.60;17.10;;;;;;;8.84;80.12;101478.75;8321142;33;20459;-75
2021/11/20 07:26:17;;;;;;;30.73;17.27;;;;;;;8.67;80.83;101468.13;8321380;33;20194;-74
2021/11/20 07:31:21;;;;;;;33.10;15.70;;;;;;;8.72;80.09;101469.59;8324230;33;20244;-77
2021/11/20 07:36:24;;;;;;;33.42;16.42;;;;;;;8.87;79.50;101464.31;8302376;33;20463;-75
2021/11/20 07:41:29;;;;;;;35.78;17.08;;;;;;;8.76;79.70;101470.28;8295162;33;21313;-75
2021/11/20 07:46:38;;;;;;;29.13;15.75;;;;;;;8.94;78.72;101458.53;8312272;33;20256;-74
2021/11/20 07:51:43;;;;;;;30.63;16.35;;;;;;;9.06;78.38;101449.78;8267217;33;20673;-73
2021/11/20 07:56:50;;;;;;;30.30;17.13;;;;;;;8.99;78.34;101442.16;8264201;33;20196;-74
2021/11/20 08:01:53;;;;;;;32.58;17.25;;;;;;;9.11;77.88;101441.47;8261618;33;20518;-74
2021/11/20 08:07:14;;;;;;;33.15;16.83;;;;;;;8.98;78.29;101437.78;8261033;33;20536;-74
2021/11/20 08:12:39;;;;;;;29.77;14.75;;;;;;;9.03;77.95;101427.66;8258975;33;20220;-75
2021/11/20 08:18:06;;;;;;;28.55;14.35;;;;;;;9.12;77.19;101418.22;8258885;33;20409;-75
2021/11/20 08:23:16;;;;;;;29.90;14.38;;;;;;;9.14;76.90;101421.66;8261013;33;20513;-76
2021/11/20 08:28:24;;;;;;;25.67;13.48;;;;;;;8.84;77.50;101418.00;8262192;33;20427;-74
2021/11/20 08:33:28;;;;;;;25.25;13.57;;;;;;;9.02;76.60;101432.16;8305852;33;20717;-74
2021/11/20 08:38:51;;;;;;;27.55;13.65;;;;;;;9.08;75.68;101414.84;8257127;33;20448;-75
2021/11/20 08:43:59;;;;;;;27.95;13.07;;;;;;;8.99;75.53;101416.22;8252699;33;20425;-75
2021/11/20 08:49:07;;;;;;;25.23;13.98;;;;;;;9.29;74.65;101408.19;8256464;33;20976;-74
2021/11/20 08:54:11;;;;;;;27.08;12.98;;;;;;;9.29;74.35;101412.72;8256154;33;20445;-74
2021/11/20 08:59:22;;;;;;;27.13;14.38;;;;;;;9.24;73.64;101410.31;8258374;33;20523;-76
2021/11/20 09:04:52;;;;;;;25.27;12.90;;;;;;;9.09;73.75;101399.63;8257960;33;20516;-75
2021/11/20 09:10:06;;;;;;;23.00;13.10;;;;;;;9.09;73.43;101397.81;8253038;33;21017;-74
2021/11/20 09:15:20;;;;;;;27.13;15.02;;;;;;;9.20;73.90;101390.00;8257413;34;20686;-76
2021/11/20 09:20:27;;;;;;;24.55;13.32;;;;;;;9.40;72.54;101388.78;8255890;34;21464;-76
2021/11/20 09:25:31;;;;;;;29.23;15.73;;;;;;;9.52;72.15;101384.53;8257680;34;20680;-76
2021/11/20 09:31:00;;;;;;;31.17;14.98;;;;;;;9.41;71.47;101377.13;8266891;34;20168;-77
2021/11/20 09:37:15;;;;;;;31.42;16.40;;;;;;;9.31;71.19;101380.44;8788230;32;20617;-74
2021/11/20 09:42:43;;;;;;;34.30;16.17;;;;;;;9.23;71.59;101357.63;8679850;33;21575;-75
2021/11/20 09:47:52;;;;;;;39.97;18.67;;;;;;;9.38;71.63;101363.91;8678482;33;20172;-75
2021/11/20 09:52:57;;;;;;;42.63;20.42;;;;;;;9.50;71.07;101355.09;8680008;33;20265;-75
2021/11/20 09:58:16;;;;;;;34.55;18.15;;;;;;;9.39;71.05;101362.09;8680846;33;20688;-74
2021/11/20 10:03:39;;;;;;;36.08;17.30;;;;;;;9.39;71.06;101351.34;8682302;33;20763;-74
2021/11/20 10:08:45;;;;;;;47.30;21.48;;;;;;;9.34;70.44;101342.72;8681547;33;20192;-74
2021/11/20 10:13:56;;;;;;;49.88;23.80;;;;;;;9.63;70.43;101340.94;8681654;33;20160;-75
2021/11/20 10:19:08;;;;;;;49.00;21.52;;;;;;;9.48;70.30;101348.09;8681445;33;20188;-75
2021/11/20 10:24:18;;;;;;;46.90;20.20;;;;;;;9.49;69.35;101331.94;8678761;33;20148;-75
2021/11/20 10:29:44;;;;;;;46.50;20.27;;;;;;;9.51;69.95;101310.34;8680685;33;20180;-75
2021/11/20 10:34:52;;;;;;;39.67;18.05;;;;;;;9.16;69.73;101304.47;8678695;33;20144;-75
2021/11/20 10:39:59;;;;;;;44.22;18.45;;;;;;;9.05;70.08;101295.28;8681014;33;20180;-75
2021/11/20 10:45:14;;;;;;;51.03;21.70;;;;;;;9.43;68.79;101289.38;8672983;33;20486;-76
2021/11/20 10:50:31;;;;;;;37.60;19.05;;;;;;;9.08;69.96;101290.66;8659680;33;20860;-75
2021/11/20 10:55:44;;;;;;;50.47;23.35;;;;;;;9.13;70.74;101289.44;8661033;33;20583;-75
2021/11/20 11:01:12;;;;;;;53.42;23.13;;;;;;;9.06;71.59;101283.59;8660758;33;20317;-76
2021/11/20 11:06:48;;;;;;;43.58;20.27;;;;;;;8.94;71.23;101276.31;8658635;33;20294;-75
2021/11/20 11:11:58;;;;;;;46.53;19.75;;;;;;;8.94;71.81;101272.75;8659386;33;20169;-76
2021/11/20 11:17:08;;;;;;;50.30;21.73;;;;;;;9.01;71.47;101258.03;8659742;33;21360;-75
2021/11/20 11:22:23;;;;;;;46.28;21.60;;;;;;;8.89;71.14;101248.91;8659131;33;20249;-77
2021/11/20 11:27:35;;;;;;;36.88;17.42;;;;;;;8.91;70.25;101243.44;8659677;33;20448;-76
2021/11/20 11:32:42;;;;;;;49.70;22.80;;;;;;;9.41;69.79;101235.00;8658059;33;20188;-76
2021/11/20 11:38:23;;;;;;;44.90;20.85;;;;;;;8.97;70.15;101211.81;8658318;33;20184;-76
2021/11/20 11:43:41;;;;;;;40.15;18.77;;;;;;;9.37;69.15;101217.34;8660116;33;20265;-75
2021/11/20 11:49:03;;;;;;;38.08;18.00;;;;;;;8.78;71.02;101204.03;8661396;33;20196;-74
2021/11/20 11:54:23;;;;;;;44.00;19.02;;;;;;;8.99;70.38;101191.09;8717500;33;20188;-73
2021/11/20 11:59:52;;;;;;;44.78;21.35;;;;;;;8.93;71.09;101183.44;8717531;33;20671;-74
2021/11/20 12:05:00;;;;;;;41.85;20.00;;;;;;;8.98;71.02;101173.31;8836746;33;20246;-74
2021/11/20 12:10:34;;;;;;;39.30;19.20;;;;;;;8.89;72.21;101165.00;8837742;33;20665;-73
2021/11/20 12:15:47;;;;;;;48.70;24.45;;;;;;;8.60;72.42;101155.09;8825623;33;20193;-76
2021/11/20 12:20:58;;;;;;;54.95;26.08;;;;;;;8.86;71.71;101146.41;8810083;33;20143;-74
2021/11/20 12:26:18;;;;;;;56.97;26.75;;;;;;;8.89;71.47;101130.16;8835781;33;20623;-73
2021/11/20 12:31:46;;;;;;;52.30;23.05;;;;;;;8.66;72.56;101129.75;8835405;33;20193;-75
2021/11/20 12:37:07;;;;;;;54.33;22.33;;;;;;;8.49;73.67;101120.06;8834688;33;21029;-75
2021/11/20 12:42:27;;;;;;;67.47;30.35;;;;;;;8.48;74.20;101114.81;8834817;33;20603;-73
2021/11/20 12:48:15;;;;;;;59.53;26.58;;;;;;;8.73;73.66;101095.44;8834909;33;20446;-74
2021/11/20 12:53:27;;;;;;;54.72;20.80;;;;;;;8.35;74.68;101094.09;8735486;33;20197;-74
2021/11/20 12:58:37;;;;;;;44.65;21.38;;;;;;;8.48;72.70;101078.19;8834360;33;20431;-74
2021/11/20 13:03:47;;;;;;;47.38;22.90;;;;;;;8.66;71.29;101069.97;8836254;33;20518;-74
2021/11/20 13:08:57;;;;;;;37.38;18.38;;;;;;;8.41;71.89;101071.44;8809067;33;20499;-73
2021/11/20 13:14:10;;;;;;;45.95;20.48;;;;;;;8.58;71.19;101057.94;8833821;33;20601;-73
2021/11/20 13:19:22;;;;;;;40.53;19.17;;;;;;;8.43;71.80;101058.81;8834872;33;20194;-74
2021/11/20 13:24:29;;;;;;;42.72;19.50;;;;;;;8.59;71.99;101038.22;8807856;33;20197;-73
2021/11/20 13:29:37;;;;;;;44.10;20.65;;;;;;;8.53;71.89;101043.06;8836912;33;20169;-75
2021/11/20 13:34:48;;;;;;;44.63;21.30;;;;;;;8.34;72.35;101033.50;8833649;33;20186;-74
2021/11/20 13:39:52;;;;;;;41.63;20.90;;;;;;;8.74;71.31;101025.66;8833491;33;20630;-74
2021/11/20 13:44:57;;;;;;;41.20;21.17;;;;;;;8.23;73.06;101027.03;8806551;33;20211;-73
2021/11/20 13:50:00;;;;;;;42.10;20.17;;;;;;;8.59;71.76;101022.16;8807910;33;20196;-73
2021/11/20 13:55:05;;;;;;;45.78;21.50;;;;;;;8.44;72.74;101012.34;8807763;33;21685;-74
2021/11/20 14:00:13;;;;;;;47.80;22.17;;;;;;;8.75;71.51;100997.06;8834666;33;20238;-73
2021/11/20 14:05:22;;;;;;;39.30;17.67;;;;;;;8.22;72.46;100991.41;8834597;33;20439;-75
2021/11/20 14:10:31;;;;;;;41.95;19.90;;;;;;;8.54;71.68;100984.06;8808330;33;20201;-73
2021/11/20 14:15:50;;;;;;;46.40;23.50;;;;;;;8.20;72.88;100987.09;8832230;33;20453;-74
2021/11/20 14:21:00;;;;;;;49.10;21.60;;;;;;;8.37;72.19;100981.56;8834200;33;20457;-73
2021/11/20 14:26:08;;;;;;;42.50;19.65;;;;;;;8.47;71.87;100984.56;8837719;33;20209;-75
2021/11/20 14:31:18;;;;;;;47.42;22.98;;;;;;;8.58;71.82;100974.91;8838033;33;20691;-75
2021/11/20 14:36:34;;;;;;;46.45;21.25;;;;;;;8.54;71.66;100967.16;8812270;33;20426;-75
2021/11/20 14:41:41;;;;;;;50.92;21.75;;;;;;;8.40;72.31;100950.09;8837950;33;20174;-76
2021/11/20 14:46:46;;;;;;;48.13;21.13;;;;;;;8.37;72.36;100944.09;8837645;33;21143;-75
2021/11/20 14:51:51;;;;;;;47.25;22.90;;;;;;;8.46;72.25;100935.50;8811844;33;20424;-75
2021/11/20 14:57:02;;;;;;;41.58;19.48;;;;;;;8.30;73.07;100924.00;8836895;33;20234;-75
2021/11/20 15:02:07;;;;;;;43.67;20.88;;;;;;;8.47;72.83;100920.28;8837060;33;20154;-75
2021/11/20 15:07:10;;;;;;;43.65;21.48;;;;;;;8.30;73.33;100913.31;8836515;33;20386;-75
2021/11/20 15:12:14;;;;;;;40.97;18.73;;;;;;;8.44;72.55;100904.41;8811498;33;20560;-76
2021/11/20 15:17:18;;;;;;;43.67;20.17;;;;;;;8.35;73.17;100897.81;8836386;33;21287;-75
2021/11/20 15:22:21;;;;;;;47.25;22.95;;;;;;;8.55;72.57;100886.72;8836188;33;21023;-75
2021/11/20 15:27:24;;;;;;;45.47;20.77;;;;;;;8.21;73.66;100874.59;8836503;33;21013;-75
2021/11/20 15:32:29;;;;;;;47.65;21.60;;;;;;;8.47;73.49;100869.41;8836290;33;20434;-75
2021/11/20 15:37:32;;;;;;;46.58;22.05;;;;;;;8.24;74.50;100865.53;8835563;33;20226;-76
2021/11/20 15:42:36;;;;;;;46.97;22.30;;;;;;;8.47;73.66;100856.88;8837075;33;20193;-76
2021/11/20 15:47:41;;;;;;;41.35;18.63;;;;;;;8.55;73.34;100856.41;8810969;33;20185;-75
2021/11/20 15:52:44;;;;;;;41.50;20.95;;;;;;;8.54;73.55;100847.50;8835985;33;20182;-76
2021/11/20 15:57:48;;;;;;;49.95;21.73;;;;;;;8.33;74.19;100855.06;8809762;33;20184;-75
2021/11/20 16:02:53;;;;;;;44.90;20.65;;;;;;;8.33;75.18;100855.06;8835858;33;20227;-76
2021/11/20 16:07:57;;;;;;;43.78;20.20;;;;;;;8.26;75.13;100836.84;8835344;33;20232;-76
2021/11/20 16:13:00;;;;;;;43.33;21.50;;;;;;;8.64;74.15;100830.81;8835734;33;20223;-76
2021/11/20 16:18:05;;;;;;;45.80;21.33;;;;;;;8.48;74.57;100831.00;8809452;33;20190;-76
2021/11/20 16:23:08;;;;;;;37.50;15.63;;;;;;;8.30;75.08;100819.63;8835197;33;20182;-76
2021/11/20 16:28:11;;;;;;;33.67;16.20;;;;;;;7.84;76.42;100802.00;8834415;33;20775;-76
2021/11/20 16:33:16;;;;;;;38.58;18.52;;;;;;;8.14;76.06;100809.03;8834591;33;20731;-75
2021/11/20 16:38:20;;;;;;;31.85;14.98;;;;;;;8.13;75.67;100791.28;8834845;33;20631;-74
2021/11/20 16:43:23;;;;;;;42.83;20.55;;;;;;;8.41;75.87;100782.31;8808785;33;20142;-76
2021/11/20 16:48:28;;;;;;;41.15;19.23;;;;;;;8.44;75.28;100770.53;8810242;33;20142;-76
2021/11/20 16:53:52;;;;;;;46.70;21.23;;;;;;;8.20;76.11;100756.94;8839827;33;20438;-75
2021/11/20 16:58:55;;;;;;;50.25;23.13;;;;;;;8.31;75.59;100754.41;8838251;33;20170;-75
2021/11/20 17:03:59;;;;;;;44.20;19.30;;;;;;;8.17;75.79;100734.78;8834266;33;20178;-75
2021/11/20 17:09:04;;;;;;;44.85;21.05;;;;;;;8.50;74.83;100728.19;8812087;33;20181;-76
2021/11/20 17:14:08;;;;;;;38.72;20.35;;;;;;;8.34;75.20;100720.28;8809647;33;20255;-73
2021/11/20 17:19:13;;;;;;;45.80;21.65;;;;;;;8.31;75.08;100717.81;8834311;33;20507;-73
2021/11/20 17:24:16;;;;;;;49.13;22.02;;;;;;;8.37;74.94;100692.47;8833517;33;20220;-73
2021/11/20 17:29:20;;;;;;;47.45;21.35;;;;;;;8.33;74.90;100694.47;8808206;33;20170;-74
2021/11/20 17:34:24;;;;;;;41.08;21.92;;;;;;;8.14;75.69;100692.16;8807244;33;20185;-74
2021/11/20 17:39:27;;;;;;;44.50;20.15;;;;;;;8.12;75.73;100695.91;8833492;33;20311;-74
2021/11/20 17:44:30;;;;;;;50.08;22.38;;;;;;;8.11;75.65;100694.19;8833031;33;20491;-76
2021/11/20 17:49:34;;;;;;;51.60;23.48;;;;;;;8.07;76.00;100690.84;8833484;33;20594;-76
2021/11/20 17:54:38;;;;;;;47.42;24.17;;;;;;;8.05;76.08;100692.75;8834333;33;20154;-75
2021/11/20 17:59:41;;;;;;;49.05;22.75;;;;;;;8.09;75.89;100688.94;8813184;33;20185;-75
2021/11/20 18:04:46;;;;;;;46.58;21.88;;;;;;;7.78;76.72;100687.38;8838815;33;20634;-75
2021/11/20 18:09:51;;;;;;;35.65;16.85;;;;;;;7.65;76.75;100682.00;8839156;33;20154;-74
2021/11/20 18:14:54;;;;;;;46.88;23.08;;;;;;;7.94;76.17;100668.53;8837813;33;20190;-75
2021/11/20 18:19:59;;;;;;;48.67;20.67;;;;;;;7.70;77.01;100670.97;8838069;33;20425;-75
2021/11/20 18:25:02;;;;;;;49.70;23.70;;;;;;;7.98;76.50;100662.03;8812745;33;20258;-73
2021/11/20 18:30:09;;;;;;;39.33;17.23;;;;;;;7.60;76.90;100662.72;8813075;33;20187;-75
2021/11/20 18:35:14;;;;;;;54.42;25.63;;;;;;;7.80;76.91;100644.50;8837626;33;20224;-75
2021/11/20 18:40:17;;;;;;;49.45;21.33;;;;;;;8.02;75.99;100634.09;8837776;33;21475;-75
2021/11/20 18:45:20;;;;;;;45.78;22.42;;;;;;;7.75;76.52;100635.94;8812163;33;20725;-74
2021/11/20 18:50:25;;;;;;;53.70;25.15;;;;;;;7.94;75.87;100634.59;8837800;33;20170;-74
2021/11/20 18:55:31;;;;;;;47.58;20.98;;;;;;;7.85;76.28;100639.72;8836531;33;20611;-75
2021/11/20 19:00:36;;;;;;;46.47;22.10;;;;;;;7.72;76.25;100624.47;8837306;33;20186;-74
2021/11/20 19:05:41;;;;;;;48.78;23.42;;;;;;;8.03;75.58;100625.13;8837242;33;20185;-74
2021/11/20 19:10:47;;;;;;;54.38;26.90;;;;;;;7.81;76.35;100628.34;8837662;33;20269;-75
2021/11/20 19:15:52;;;;;;;52.47;26.02;;;;;;;7.95;75.84;100614.06;8836202;33;20229;-74
2021/11/20 19:20:56;;;;;;;53.33;24.13;;;;;;;8.01;75.47;100616.34;8811395;33;20238;-74
2021/11/20 19:25:59;;;;;;;46.90;23.70;;;;;;;8.11;75.24;100613.91;8836502;33;20424;-74
2021/11/20 19:31:02;;;;;;;53.67;24.88;;;;;;;7.86;76.15;100599.50;8811548;33;20470;-75
2021/11/20 19:36:08;;;;;;;51.85;24.13;;;;;;;7.78;76.00;100595.59;8836380;33;20182;-75
2021/11/20 19:41:20;;;;;;;49.10;23.92;;;;;;;7.65;76.40;100598.22;8835867;33;20706;-74
2021/11/20 19:46:24;;;;;;;53.70;24.98;;;;;;;7.57;76.96;100603.22;8810577;33;20710;-74
2021/11/20 19:51:28;;;;;;;51.72;24.02;;;;;;;7.45;77.27;100595.03;8836621;33;20439;-74
2021/11/20 19:56:32;;;;;;;52.13;24.23;;;;;;;7.61;77.14;100596.72;8835287;33;21553;-74
2021/11/20 20:01:35;;;;;;;57.97;23.52;;;;;;;7.23;78.09;100592.03;8810459;33;20195;-75
2021/11/20 20:06:40;;;;;;;54.03;23.90;;;;;;;7.26;78.96;100587.34;8810123;33;20561;-74
2021/11/20 20:11:43;;;;;;;54.75;24.98;;;;;;;7.23;79.30;100579.53;8835922;33;20186;-76
2021/11/20 20:17:06;;;;;;;57.63;27.00;;;;;;;7.17;79.75;100571.06;8809150;33;21003;-73
2021/11/20 20:22:11;;;;;;;61.53;28.60;;;;;;;7.22;79.83;100571.63;8835817;33;20178;-74
2021/11/20 20:27:15;;;;;;;60.10;27.17;;;;;;;6.88;81.33;100555.03;8833925;33;20186;-74
2021/11/20 20:32:18;;;;;;;69.28;28.30;;;;;;;7.13;80.47;100543.69;8835849;33;20840;-74
2021/11/20 20:37:22;;;;;;;68.03;30.67;;;;;;;6.74;81.89;100539.84;8834764;33;20230;-74
2021/11/20 20:42:26;;;;;;;53.15;25.63;;;;;;;6.75;81.98;100535.41;8834202;33;20174;-73
2021/11/20 20:47:30;;;;;;;61.13;29.65;;;;;;;6.95;80.44;100531.50;8834394;33;20577;-74
2021/11/20 20:52:35;;;;;;;69.57;28.50;;;;;;;6.86;80.60;100527.56;8832575;33;20213;-73
2021/11/20 20:57:38;;;;;;;63.33;29.15;;;;;;;6.79;80.13;100526.22;8833774;33;20620;-73
2021/11/20 21:02:42;;;;;;;61.45;27.80;;;;;;;6.71;79.92;100513.34;8835570;33;20231;-74
2021/11/20 21:07:48;;;;;;;70.25;30.02;;;;;;;6.96;79.04;100510.00;8834323;33;20154;-75
2021/11/20 21:12:54;;;;;;;70.05;27.95;;;;;;;7.22;78.10;100504.81;8834115;33;20251;-74
2021/11/20 21:18:03;;;;;;;71.25;30.77;;;;;;;7.27;78.19;100502.72;8834173;33;20251;-74
2021/11/20 21:23:07;;;;;;;53.88;22.95;;;;;;;7.19;77.24;100491.66;8834788;33;20288;-73
2021/11/20 21:28:26;;;;;;;62.63;29.45;;;;;;;6.98;77.88;100467.19;8833769;33;20181;-73
2021/11/20 21:33:29;;;;;;;64.03;29.13;;;;;;;6.76;78.58;100473.88;8833542;33;20196;-73
2021/11/20 21:38:33;;;;;;;44.35;19.27;;;;;;;6.72;78.71;100458.13;8833493;33;20178;-74
2021/11/20 21:43:36;;;;;;;62.78;25.38;;;;;;;6.72;78.11;100460.81;8832305;33;20182;-73
2021/11/20 21:48:40;;;;;;;58.92;26.63;;;;;;;6.61;78.96;100438.34;8833148;33;20535;-75
2021/11/20 21:53:45;;;;;;;56.38;25.73;;;;;;;6.62;78.77;100437.38;8832353;33;20209;-73
2021/11/20 21:58:49;;;;;;;53.28;21.77;;;;;;;6.70;78.41;100438.72;8832692;33;20240;-74
2021/11/20 22:03:52;;;;;;;57.55;26.90;;;;;;;6.61;78.65;100433.00;8832991;33;20474;-74
2021/11/20 22:08:57;;;;;;;61.65;26.02;;;;;;;6.83;77.90;100413.78;8833947;33;20595;-73
2021/11/20 22:14:00;;;;;;;64.25;29.70;;;;;;;6.79;78.45;100430.97;8833164;33;20323;-73
2021/11/20 22:19:03;;;;;;;59.05;26.85;;;;;;;6.77;78.38;100424.00;8807797;33;20512;-73
2021/11/20 22:24:08;;;;;;;71.50;34.20;;;;;;;6.65;78.55;100419.47;8832081;33;20673;-74
2021/11/20 22:29:11;;;;;;;66.80;28.52;;;;;;;6.52;78.75;100409.56;8832995;33;20247;-73
2021/11/20 22:34:14;;;;;;;63.28;28.05;;;;;;;6.41;79.41;100401.38;8832250;33;20189;-74
2021/11/20 22:39:19;;;;;;;53.83;24.33;;;;;;;6.15;79.64;100400.38;8831910;33;20883;-74
2021/11/20 22:44:23;;;;;;;60.25;25.65;;;;;;;6.31;79.09;100392.25;8836340;33;20295;-74
2021/11/20 22:49:26;;;;;;;60.10;26.73;;;;;;;6.53;77.84;100381.94;8837661;33;21535;-74
2021/11/20 22:54:30;;;;;;;62.53;27.80;;;;;;;6.40;78.54;100373.84;8836508;33;20189;-73
2021/11/20 22:59:34;;;;;;;55.55;23.70;;;;;;;6.37;78.03;100366.03;8836732;33;20882;-74
2021/11/20 23:04:37;;;;;;;67.13;28.60;;;;;;;6.39;78.24;100353.47;8834310;33;20215;-73
2021/11/20 23:09:41;;;;;;;74.35;29.80;;;;;;;6.27;78.47;100351.56;8834303;33;20170;-75
2021/11/20 23:14:44;;;;;;;73.20;32.08;;;;;;;6.39;79.40;100345.47;8835910;33;20466;-73
2021/11/20 23:19:49;;;;;;;68.70;30.80;;;;;;;6.48;78.54;100329.81;8835572;33;20273;-73
2021/11/20 23:24:53;;;;;;;65.82;27.90;;;;;;;6.46;78.48;100324.56;8810466;33;20417;-73
2021/11/20 23:29:58;;;;;;;65.97;28.92;;;;;;;6.58;78.05;100310.44;8835674;33;20647;-74
2021/11/20 23:35:02;;;;;;;62.97;28.38;;;;;;;6.60;77.98;100297.81;8809637;33;21431;-73
2021/11/20 23:40:09;;;;;;;63.03;28.15;;;;;;;6.07;80.05;100296.81;8810619;33;20178;-74
2021/11/20 23:45:12;;;;;;;59.63;24.40;;;;;;;6.26;79.32;100293.84;8835533;33;20534;-74